Time;durP1;ratioP1;P1;durP2;ratioP2;P2;SDS_P1;SDS_P2;PMS_P1;PMS_P2;Temp;Humidity;BMP_temperature;BMP_pressure;BME280_temperature;BME280_humidity;BME280_pressure;Samples;Min_cycle;Max_cycle;Signal;HPM_P1;HPM_P2
2021/01/31 00:01:00;;;;;;;3.20;1.42;;;3.90;99.90;;;;;;1896497;76;21435;-76
2021/01/31 00:03:26;;;;;;;1.52;1.42;;;4.00;99.90;;;;;;1896469;76;21070;-76
2021/01/31 00:05:53;;;;;;;1.50;1.40;;;4.00;99.90;;;;;;1896582;76;21078;-76
2021/01/31 00:08:19;;;;;;;1.50;1.40;;;4.00;99.90;;;;;;1896614;76;21078;-76
2021/01/31 00:10:45;;;;;;;1.42;1.30;;;4.00;99.90;;;;;;1896630;76;21147;-76
2021/01/31 00:13:12;;;;;;;1.32;1.22;;;4.00;99.90;;;;;;1896504;76;21074;-76
2021/01/31 00:15:39;;;;;;;3.00;1.70;;;4.00;99.90;;;;;;1896736;76;21181;-76
2021/01/31 00:18:05;;;;;;;1.70;1.60;;;3.90;99.90;;;;;;1896482;76;21563;-76
2021/01/31 00:20:31;;;;;;;0.98;0.98;;;4.00;99.90;;;;;;1896287;76;21459;-76
2021/01/31 00:22:57;;;;;;;1.70;1.60;;;4.00;99.90;;;;;;1896461;75;21144;-77
2021/01/31 00:25:23;;;;;;;1.55;1.37;;;4.00;99.90;;;;;;1896274;76;21070;-77
2021/01/31 00:27:49;;;;;;;1.67;1.57;;;3.80;99.90;;;;;;1896438;76;21074;-77
2021/01/31 00:30:16;;;;;;;1.40;1.32;;;3.70;99.90;;;;;;1902815;74;21128;-77
2021/01/31 00:32:42;;;;;;;1.55;1.45;;;3.50;99.90;;;;;;1896272;76;21066;-77
2021/01/31 00:35:08;;;;;;;1.55;1.45;;;3.40;99.90;;;;;;1896468;76;21147;-76
2021/01/31 00:37:34;;;;;;;1.72;1.62;;;3.30;99.90;;;;;;1896407;75;21478;-77
2021/01/31 00:40:00;;;;;;;2.77;2.05;;;3.50;99.90;;;;;;1896407;76;21862;-77
2021/01/31 00:42:26;;;;;;;2.20;2.00;;;3.50;99.90;;;;;;1903744;74;21443;-76
2021/01/31 00:44:52;;;;;;;1.98;1.75;;;3.50;99.90;;;;;;1899380;76;21102;-75
2021/01/31 00:47:19;;;;;;;1.92;1.70;;;3.60;99.90;;;;;;1896496;76;21043;-76
2021/01/31 00:49:45;;;;;;;3.27;2.02;;;3.70;99.90;;;;;;1896413;76;21452;-77
2021/01/31 00:52:11;;;;;;;3.02;1.85;;;3.70;99.90;;;;;;1896411;76;21455;-76
2021/01/31 00:54:37;;;;;;;4.35;2.62;;;3.80;99.90;;;;;;1896280;76;21156;-76
2021/01/31 00:57:03;;;;;;;1.95;1.85;;;3.70;99.90;;;;;;1896441;76;21109;-75
2021/01/31 00:59:29;;;;;;;2.20;2.00;;;3.50;99.90;;;;;;1896493;76;21074;-77
2021/01/31 01:01:57;;;;;;;2.35;2.05;;;3.60;99.90;;;;;;1896463;76;21066;-76
2021/01/31 01:04:23;;;;;;;2.20;1.87;;;3.60;99.90;;;;;;1896208;76;21606;-77
2021/01/31 01:06:49;;;;;;;2.60;2.10;;;3.60;99.90;;;;;;1896405;76;21141;-77
2021/01/31 01:09:16;;;;;;;3.22;2.12;;;3.60;99.90;;;;;;1896252;76;21039;-76
2021/01/31 01:11:42;;;;;;;1.75;1.65;;;3.60;99.90;;;;;;1896472;76;21058;-75
2021/01/31 01:14:08;;;;;;;2.45;2.17;;;3.60;99.90;;;;;;1896241;76;21136;-76
2021/01/31 01:16:34;;;;;;;2.40;2.20;;;3.60;99.90;;;;;;1896473;76;21066;-75
2021/01/31 01:19:03;;;;;;;3.67;2.20;;;3.70;99.90;;;;;;1902504;73;21183;-75
2021/01/31 01:21:28;;;;;;;2.60;2.40;;;3.60;99.90;;;;;;1898420;74;21052;-76
2021/01/31 01:23:54;;;;;;;1.70;1.60;;;3.40;99.90;;;;;;1906260;74;21054;-76
2021/01/31 01:26:20;;;;;;;3.00;2.27;;;3.30;99.90;;;;;;1902873;74;21160;-76
2021/01/31 01:28:47;;;;;;;2.05;1.85;;;3.40;99.90;;;;;;1896326;76;21137;-76
2021/01/31 01:31:13;;;;;;;3.87;2.27;;;3.50;99.90;;;;;;1902353;74;21091;-75
2021/01/31 01:33:39;;;;;;;2.35;2.15;;;3.50;99.90;;;;;;1896336;76;21494;-76
2021/01/31 01:36:05;;;;;;;2.65;1.77;;;3.50;99.90;;;;;;1896349;76;21524;-76
2021/01/31 01:38:31;;;;;;;4.37;2.52;;;3.50;99.90;;;;;;1896353;76;21486;-76
2021/01/31 01:40:57;;;;;;;2.47;2.27;;;3.50;99.90;;;;;;1896341;76;21132;-75
2021/01/31 01:43:23;;;;;;;2.75;2.35;;;3.50;99.90;;;;;;1896448;75;21097;-75
2021/01/31 01:45:49;;;;;;;3.58;2.37;;;3.40;99.90;;;;;;1896416;76;21059;-76
2021/01/31 01:48:15;;;;;;;3.52;2.20;;;3.40;99.90;;;;;;1896183;76;21039;-76
2021/01/31 01:50:42;;;;;;;2.70;2.20;;;3.50;99.90;;;;;;1896425;76;21058;-75
2021/01/31 01:53:08;;;;;;;2.52;2.33;;;3.40;99.90;;;;;;1896535;76;21136;-75
2021/01/31 01:55:34;;;;;;;2.05;1.90;;;3.40;99.90;;;;;;1896556;76;21059;-75
2021/01/31 01:58:00;;;;;;;2.75;2.45;;;3.50;99.90;;;;;;1896504;76;21058;-76
2021/01/31 02:00:26;;;;;;;2.58;2.37;;;3.50;99.90;;;;;;1896191;76;21148;-75
2021/01/31 02:02:52;;;;;;;2.30;2.08;;;3.60;99.90;;;;;;1896591;76;21128;-76
2021/01/31 02:05:18;;;;;;;2.75;2.33;;;3.50;99.90;;;;;;1896358;76;21046;-77
2021/01/31 02:07:44;;;;;;;4.10;2.55;;;3.50;99.90;;;;;;1896395;76;21408;-76
2021/01/31 02:10:11;;;;;;;3.52;2.58;;;3.50;99.90;;;;;;1896535;76;21544;-76
2021/01/31 02:12:37;;;;;;;2.87;2.58;;;3.40;99.90;;;;;;1896422;76;21494;-76
2021/01/31 02:15:03;;;;;;;2.30;2.10;;;3.40;99.90;;;;;;1896452;76;21107;-77
2021/01/31 02:17:29;;;;;;;3.77;2.22;;;3.40;99.90;;;;;;1896459;76;21058;-77
2021/01/31 02:19:55;;;;;;;3.22;2.00;;;3.50;99.90;;;;;;1896548;76;21062;-77
2021/01/31 02:22:21;;;;;;;2.35;2.15;;;3.50;99.90;;;;;;1896411;76;21058;-77
2021/01/31 02:24:47;;;;;;;2.30;2.10;;;3.60;99.90;;;;;;1896416;76;21140;-76
2021/01/31 02:27:13;;;;;;;2.12;1.92;;;3.40;99.90;;;;;;1896506;76;21082;-76
2021/01/31 02:29:40;;;;;;;2.70;2.50;;;3.50;99.90;;;;;;1896542;75;21427;-76
2021/01/31 02:32:06;;;;;;;2.35;2.15;;;3.30;99.90;;;;;;1896540;76;21532;-77
2021/01/31 02:34:32;;;;;;;3.35;2.35;;;3.30;99.90;;;;;;1896319;76;21462;-76
2021/01/31 02:36:58;;;;;;;2.08;1.90;;;3.40;99.90;;;;;;1896542;76;21066;-75
2021/01/31 02:39:24;;;;;;;3.52;2.15;;;3.50;99.90;;;;;;1896302;76;21132;-75
2021/01/31 02:41:50;;;;;;;2.30;2.10;;;3.60;99.90;;;;;;1896523;76;21124;-77
2021/01/31 02:44:16;;;;;;;2.80;2.50;;;3.50;99.90;;;;;;1896320;76;21137;-75
2021/01/31 02:46:42;;;;;;;2.42;2.22;;;3.30;99.90;;;;;;1896533;76;21036;-76
2021/01/31 02:49:08;;;;;;;3.12;2.70;;;3.20;99.90;;;;;;1896500;76;21072;-76
2021/01/31 02:51:35;;;;;;;2.90;2.47;;;3.30;99.90;;;;;;1898988;75;21078;-76
2021/01/31 02:54:01;;;;;;;3.52;2.37;;;3.30;99.90;;;;;;1897323;75;21070;-77
2021/01/31 02:56:27;;;;;;;4.33;3.10;;;3.30;99.90;;;;;;1896405;76;21067;-76
2021/01/31 02:58:53;;;;;;;7.25;2.77;;;3.20;99.90;;;;;;1896419;76;21125;-75
2021/01/31 03:01:19;;;;;;;3.85;2.95;;;3.20;99.90;;;;;;1896461;76;21077;-76
2021/01/31 03:03:45;;;;;;;5.00;3.33;;;3.00;99.90;;;;;;1896661;76;21541;-76
2021/01/31 03:06:11;;;;;;;4.75;3.20;;;3.00;99.90;;;;;;1896314;75;21475;-76
2021/01/31 03:08:37;;;;;;;3.92;3.00;;;2.90;99.90;;;;;;1896503;76;21487;-77
2021/01/31 03:11:04;;;;;;;3.55;3.00;;;2.90;99.90;;;;;;1896310;76;21110;-77
2021/01/31 03:13:30;;;;;;;5.55;3.87;;;2.80;99.90;;;;;;1902235;74;21057;-75
2021/01/31 03:15:56;;;;;;;4.92;3.60;;;2.80;99.90;;;;;;1909323;74;21145;-77
2021/01/31 03:18:22;;;;;;;5.00;3.70;;;2.70;99.90;;;;;;1908951;74;21078;-75
2021/01/31 03:20:48;;;;;;;5.70;3.90;;;2.70;99.90;;;;;;1896337;76;21067;-76
2021/01/31 03:23:14;;;;;;;6.00;3.70;;;2.70;99.90;;;;;;1907627;74;21043;-79
2021/01/31 03:25:41;;;;;;;5.78;3.65;;;2.70;99.90;;;;;;1903332;74;21465;-77
2021/01/31 03:28:07;;;;;;;7.37;3.92;;;2.80;99.90;;;;;;1901666;74;21495;-75
2021/01/31 03:30:33;;;;;;;7.70;3.37;;;2.70;99.90;;;;;;1902763;73;21550;-77
2021/01/31 03:32:59;;;;;;;4.20;3.30;;;2.80;99.90;;;;;;1896488;76;21093;-76
2021/01/31 03:35:30;;;;;;;4.55;3.47;;;2.80;99.90;;;;;;1896547;76;21062;-77
2021/01/31 03:37:53;;;;;;;4.50;3.37;;;2.80;99.90;;;;;;1895824;75;21130;-77
2021/01/31 03:40:19;;;;;;;3.65;3.25;;;2.80;99.90;;;;;;1896303;76;21054;-77
2021/01/31 03:42:45;;;;;;;3.35;3.05;;;2.90;99.90;;;;;;1896530;76;21058;-76
2021/01/31 03:45:11;;;;;;;3.70;3.35;;;2.80;99.90;;;;;;1896651;76;21099;-76
2021/01/31 03:47:38;;;;;;;5.83;3.35;;;2.90;99.90;;;;;;1896627;76;21039;-77
2021/01/31 03:50:04;;;;;;;4.75;3.35;;;3.00;99.90;;;;;;1896524;76;21523;-76
2021/01/31 03:52:30;;;;;;;5.40;2.98;;;3.10;99.90;;;;;;1896320;76;21451;-76
2021/01/31 03:54:56;;;;;;;5.17;3.60;;;3.10;99.90;;;;;;1896602;76;21062;-78
2021/01/31 03:57:22;;;;;;;6.45;3.60;;;3.10;99.90;;;;;;1896313;76;21157;-76
2021/01/31 03:59:48;;;;;;;6.33;3.55;;;3.10;99.90;;;;;;1896515;76;21143;-76
2021/01/31 04:02:14;;;;;;;3.75;3.08;;;2.90;99.90;;;;;;1896298;76;21132;-75
2021/01/31 04:04:40;;;;;;;3.80;3.17;;;2.90;99.90;;;;;;1896515;76;21062;-76
2021/01/31 04:07:07;;;;;;;3.80;2.75;;;2.90;99.90;;;;;;1896592;76;21062;-76
2021/01/31 04:09:33;;;;;;;3.20;2.90;;;3.00;99.90;;;;;;1896600;76;21096;-75
2021/01/31 04:11:59;;;;;;;4.00;2.75;;;3.10;99.90;;;;;;1896519;76;21007;-75
2021/01/31 04:14:25;;;;;;;3.12;2.77;;;3.10;99.90;;;;;;1896313;76;21229;-76
2021/01/31 04:16:51;;;;;;;5.15;3.25;;;3.10;99.90;;;;;;1896516;76;21128;-76
2021/01/31 04:19:17;;;;;;;4.95;2.50;;;3.10;99.90;;;;;;1896304;76;21074;-76
2021/01/31 04:21:43;;;;;;;3.12;2.83;;;3.10;99.90;;;;;;1896510;76;21494;-76
2021/01/31 04:24:09;;;;;;;7.85;3.10;;;3.10;99.90;;;;;;1896259;76;21585;-76
2021/01/31 04:26:36;;;;;;;3.10;2.80;;;3.10;99.90;;;;;;1896516;76;21463;-76
2021/01/31 04:29:02;;;;;;;2.65;2.45;;;3.20;99.90;;;;;;1896253;76;21043;-75
2021/01/31 04:31:28;;;;;;;3.15;2.52;;;3.10;99.90;;;;;;1896467;76;21136;-76
2021/01/31 04:33:54;;;;;;;4.87;3.10;;;3.20;99.90;;;;;;1896244;75;21097;-77
2021/01/31 04:36:20;;;;;;;3.40;2.67;;;3.20;99.90;;;;;;1896417;76;21207;-76
2021/01/31 04:38:46;;;;;;;4.20;2.37;;;3.20;99.90;;;;;;1896286;76;21058;-76
2021/01/31 04:41:12;;;;;;;3.22;2.20;;;3.30;99.90;;;;;;1896350;76;21132;-76
2021/01/31 04:43:38;;;;;;;5.05;3.22;;;3.30;99.90;;;;;;1896404;76;21059;-76
2021/01/31 04:46:04;;;;;;;3.45;2.70;;;3.20;99.90;;;;;;1896383;76;21039;-76
2021/01/31 04:48:37;;;;;;;7.58;3.12;;;3.20;99.90;;;;;;1896434;76;21066;-76
2021/01/31 04:51:03;;;;;;;6.05;2.85;;;3.10;99.90;;;;;;1896453;76;21191;-77
2021/01/31 04:53:30;;;;;;;2.85;2.58;;;3.20;99.90;;;;;;1896367;76;21063;-76
2021/01/31 04:55:56;;;;;;;4.05;2.67;;;3.20;99.90;;;;;;1896313;76;21051;-76
2021/01/31 04:58:22;;;;;;;3.27;2.85;;;3.20;99.90;;;;;;1896365;76;21169;-76
2021/01/31 05:00:48;;;;;;;4.10;3.00;;;3.30;99.90;;;;;;1902326;73;21078;-76
2021/01/31 05:03:14;;;;;;;2.67;2.45;;;3.30;99.90;;;;;;1896437;75;21109;-76
2021/01/31 05:05:40;;;;;;;2.77;2.40;;;3.30;99.90;;;;;;1896458;76;21066;-76
2021/01/31 05:08:06;;;;;;;3.37;2.75;;;3.30;99.90;;;;;;1896329;76;21074;-77
2021/01/31 05:10:32;;;;;;;3.22;2.75;;;3.10;99.90;;;;;;1896342;76;21475;-76
2021/01/31 05:12:59;;;;;;;4.35;2.92;;;3.00;99.90;;;;;;1896370;76;21039;-77
2021/01/31 05:15:26;;;;;;;3.22;2.52;;;3.00;99.90;;;;;;1896572;76;21059;-76
2021/01/31 05:17:52;;;;;;;3.05;2.60;;;3.00;99.90;;;;;;1896353;76;21126;-76
2021/01/31 05:20:18;;;;;;;3.85;3.02;;;3.10;99.90;;;;;;1896353;76;21143;-76
2021/01/31 05:22:44;;;;;;;2.83;2.60;;;3.10;99.90;;;;;;1896334;76;21466;-76
2021/01/31 05:25:10;;;;;;;3.60;2.85;;;3.10;99.90;;;;;;1896337;76;21564;-76
2021/01/31 05:27:36;;;;;;;3.08;2.72;;;3.20;99.90;;;;;;1896320;76;21495;-76
2021/01/31 05:30:02;;;;;;;4.65;2.42;;;3.20;99.90;;;;;;1896324;76;21055;-76
2021/01/31 05:32:28;;;;;;;4.08;2.62;;;3.30;99.90;;;;;;1896307;76;21140;-76
2021/01/31 05:34:54;;;;;;;4.05;2.75;;;3.10;99.90;;;;;;1896338;76;21043;-75
2021/01/31 05:37:21;;;;;;;3.05;2.72;;;3.10;99.90;;;;;;1896442;76;21131;-75
2021/01/31 05:39:47;;;;;;;5.78;2.75;;;3.10;99.90;;;;;;1896581;76;21169;-75
2021/01/31 05:42:13;;;;;;;2.85;2.60;;;3.10;99.90;;;;;;1896485;76;21136;-75
2021/01/31 05:44:39;;;;;;;2.72;2.33;;;3.20;99.90;;;;;;1896568;76;21070;-75
2021/01/31 05:47:07;;;;;;;3.42;2.70;;;3.30;99.90;;;;;;1896471;76;21435;-75
2021/01/31 05:49:33;;;;;;;3.95;2.70;;;3.40;99.90;;;;;;1896409;76;21132;-75
2021/01/31 05:51:59;;;;;;;3.50;2.83;;;3.30;99.90;;;;;;1896437;76;21577;-75
2021/01/31 05:54:25;;;;;;;3.22;2.37;;;3.30;99.90;;;;;;1896451;76;21124;-75
2021/01/31 05:56:52;;;;;;;2.98;2.47;;;3.30;99.90;;;;;;1896472;76;21132;-75
2021/01/31 05:59:19;;;;;;;3.27;2.22;;;3.30;99.90;;;;;;1896481;76;21062;-75
2021/01/31 06:01:45;;;;;;;2.42;2.22;;;3.20;99.90;;;;;;1896439;76;21062;-75
2021/01/31 06:04:11;;;;;;;6.83;2.80;;;3.20;99.90;;;;;;1896476;75;21067;-75
2021/01/31 06:06:37;;;;;;;5.20;3.08;;;3.30;99.90;;;;;;1896440;76;21039;-75
2021/01/31 06:09:03;;;;;;;2.80;2.52;;;3.30;99.90;;;;;;1896419;76;21252;-75
2021/01/31 06:11:29;;;;;;;4.35;2.85;;;3.10;99.90;;;;;;1896446;76;21026;-77
2021/01/31 06:13:55;;;;;;;3.55;2.83;;;3.20;99.90;;;;;;1896545;76;21062;-75
2021/01/31 06:16:21;;;;;;;3.72;2.67;;;3.20;99.90;;;;;;1896531;76;21058;-75
2021/01/31 06:18:48;;;;;;;2.95;2.65;;;3.10;99.90;;;;;;1896448;75;21062;-75
2021/01/31 06:21:14;;;;;;;3.72;2.65;;;3.20;99.90;;;;;;1896432;76;21113;-75
2021/01/31 06:23:40;;;;;;;3.62;2.35;;;3.20;99.90;;;;;;1896462;76;21035;-75
2021/01/31 06:26:06;;;;;;;5.33;2.62;;;3.30;99.90;;;;;;1896426;76;21478;-75
2021/01/31 06:28:32;;;;;;;3.08;2.75;;;3.30;99.90;;;;;;1896416;76;21458;-75
2021/01/31 06:30:58;;;;;;;2.50;2.27;;;3.30;99.90;;;;;;1896439;76;21474;-76
2021/01/31 06:33:24;;;;;;;2.85;2.22;;;3.30;99.90;;;;;;1896439;76;21066;-75
2021/01/31 06:35:50;;;;;;;3.52;3.10;;;3.30;99.90;;;;;;1896562;76;21070;-75
2021/01/31 06:38:17;;;;;;;5.12;3.35;;;3.20;99.90;;;;;;1896538;76;21066;-75
2021/01/31 06:40:43;;;;;;;4.10;2.52;;;3.20;99.90;;;;;;1896531;76;21133;-76
2021/01/31 06:43:09;;;;;;;3.15;2.80;;;3.20;99.90;;;;;;1896443;75;21136;-75
2021/01/31 06:45:35;;;;;;;2.12;2.00;;;3.30;99.90;;;;;;1896424;75;21035;-76
2021/01/31 06:48:02;;;;;;;7.28;2.70;;;3.30;99.90;;;;;;1896368;76;21066;-76
2021/01/31 06:50:28;;;;;;;2.92;2.35;;;3.40;99.90;;;;;;1896360;76;21077;-76
2021/01/31 06:52:54;;;;;;;3.58;2.58;;;3.30;99.90;;;;;;1896520;76;21114;-75
2021/01/31 06:55:20;;;;;;;7.20;3.37;;;3.20;99.90;;;;;;1896308;76;21043;-75
2021/01/31 06:57:46;;;;;;;4.90;2.65;;;3.30;99.90;;;;;;1896531;76;21474;-75
2021/01/31 07:00:12;;;;;;;5.45;2.70;;;3.30;99.90;;;;;;1896426;76;21464;-75
2021/01/31 07:02:39;;;;;;;4.22;2.77;;;3.30;99.90;;;;;;1901721;74;21129;-76
2021/01/31 07:05:05;;;;;;;3.22;2.40;;;3.30;99.90;;;;;;1896430;76;21058;-76
2021/01/31 07:07:31;;;;;;;3.80;3.08;;;3.30;99.90;;;;;;1896368;76;21050;-75
2021/01/31 07:09:57;;;;;;;3.20;2.72;;;3.20;99.90;;;;;;1896423;76;21121;-75
2021/01/31 07:12:23;;;;;;;2.35;2.15;;;3.20;99.90;;;;;;1896436;76;21027;-75
2021/01/31 07:14:49;;;;;;;2.83;2.37;;;3.30;99.90;;;;;;1896529;76;21037;-76
2021/01/31 07:17:15;;;;;;;3.20;2.60;;;3.30;99.90;;;;;;1896582;76;21058;-77
2021/01/31 07:19:41;;;;;;;4.35;2.60;;;3.30;99.90;;;;;;1896414;76;21038;-76
2021/01/31 07:22:08;;;;;;;3.60;2.90;;;3.30;99.90;;;;;;1896421;76;21058;-76
2021/01/31 07:24:34;;;;;;;3.05;2.75;;;3.40;99.90;;;;;;1904879;74;21478;-79
2021/01/31 07:27:00;;;;;;;4.10;3.25;;;3.30;99.90;;;;;;1900322;74;21089;-80
2021/01/31 07:29:26;;;;;;;3.08;2.77;;;3.30;99.90;;;;;;1884067;74;21069;-79
2021/01/31 07:31:52;;;;;;;5.55;2.95;;;3.40;99.90;;;;;;1896519;76;21058;-79
2021/01/31 07:34:18;;;;;;;4.05;2.90;;;3.40;99.90;;;;;;1896411;76;21059;-79
2021/01/31 07:36:44;;;;;;;2.65;2.45;;;3.40;99.90;;;;;;1896513;76;21082;-79
2021/01/31 07:39:10;;;;;;;3.60;2.55;;;3.50;99.90;;;;;;1896527;75;21180;-79
2021/01/31 07:41:36;;;;;;;5.03;2.67;;;3.60;99.90;;;;;;1896518;76;21062;-80
2021/01/31 07:44:03;;;;;;;2.42;2.22;;;3.60;99.90;;;;;;1896488;76;21055;-79
2021/01/31 07:46:29;;;;;;;2.72;2.52;;;3.60;99.90;;;;;;1896275;76;21059;-79
2021/01/31 07:48:55;;;;;;;3.08;2.77;;;3.60;99.90;;;;;;1896452;76;21121;-79
2021/01/31 07:51:21;;;;;;;3.27;2.85;;;3.50;99.90;;;;;;1896401;76;21067;-79
2021/01/31 07:53:47;;;;;;;2.95;2.65;;;3.60;99.90;;;;;;1896516;76;21427;-79
2021/01/31 07:56:13;;;;;;;4.28;3.15;;;3.60;99.90;;;;;;1896845;76;21439;-79
2021/01/31 07:58:39;;;;;;;2.67;2.37;;;3.60;99.90;;;;;;1896757;75;21412;-79
2021/01/31 08:01:05;;;;;;;4.62;2.90;;;3.70;99.90;;;;;;1896408;76;21058;-79
2021/01/31 08:03:32;;;;;;;3.98;2.50;;;3.80;99.90;;;;;;1896392;76;21059;-80
2021/01/31 08:05:58;;;;;;;3.58;2.67;;;3.80;99.90;;;;;;1896417;76;21070;-79
2021/01/31 08:08:24;;;;;;;3.52;2.70;;;3.90;99.90;;;;;;1896326;76;21117;-78
2021/01/31 08:10:52;;;;;;;3.92;2.83;;;3.60;99.90;;;;;;1896375;75;21140;-80
2021/01/31 08:13:18;;;;;;;4.30;3.08;;;3.70;99.90;;;;;;1896377;76;21066;-79
2021/01/31 08:15:44;;;;;;;3.42;2.80;;;3.60;99.90;;;;;;1896399;76;21086;-79
2021/01/31 08:18:10;;;;;;;5.17;2.60;;;3.70;99.90;;;;;;1896358;76;21070;-77
2021/01/31 08:20:36;;;;;;;4.62;2.83;;;3.80;99.90;;;;;;1896504;76;21152;-77
2021/01/31 08:23:02;;;;;;;3.75;2.62;;;3.70;99.90;;;;;;1896396;76;21448;-79
2021/01/31 08:25:28;;;;;;;6.50;2.60;;;3.70;99.90;;;;;;1896480;76;21475;-79
2021/01/31 08:27:55;;;;;;;11.63;3.75;;;3.90;99.90;;;;;;1896236;76;21587;-78
2021/01/31 08:30:22;;;;;;;2.83;2.60;;;3.80;99.90;;;;;;1896573;76;21031;-78
2021/01/31 08:32:48;;;;;;;4.17;3.17;;;3.80;99.90;;;;;;1896452;76;21431;-79
2021/01/31 08:35:14;;;;;;;4.15;3.02;;;3.90;99.90;;;;;;1896249;76;21186;-79
2021/01/31 08:37:40;;;;;;;3.02;2.72;;;3.80;99.90;;;;;;1896637;76;21062;-78
2021/01/31 08:40:06;;;;;;;10.70;5.50;;;3.80;99.90;;;;;;1896342;76;21141;-74
2021/01/31 08:42:32;;;;;;;5.10;3.37;;;3.90;99.90;;;;;;1896657;76;21149;-79
2021/01/31 08:44:59;;;;;;;6.20;3.80;;;4.00;99.90;;;;;;1896351;76;21149;-80
2021/01/31 08:47:26;;;;;;;4.35;2.90;;;3.80;99.90;;;;;;1896462;76;21070;-81
2021/01/31 08:49:52;;;;;;;6.53;3.92;;;3.90;99.90;;;;;;1896422;75;21062;-78
2021/01/31 08:52:18;;;;;;;5.00;3.83;;;4.00;99.90;;;;;;1896381;75;21157;-79
2021/01/31 08:54:44;;;;;;;4.42;3.58;;;4.10;99.90;;;;;;1896466;76;21322;-81
2021/01/31 08:57:10;;;;;;;4.97;3.50;;;4.00;99.90;;;;;;1896356;75;21007;-83
2021/01/31 08:59:36;;;;;;;6.22;4.28;;;4.00;99.90;;;;;;1896461;75;21124;-82
2021/01/31 09:02:02;;;;;;;6.55;3.62;;;4.10;99.90;;;;;;1896487;76;21062;-82
2021/01/31 09:04:29;;;;;;;5.20;3.95;;;4.00;99.90;;;;;;1896365;76;21132;-82
2021/01/31 09:06:55;;;;;;;6.05;3.60;;;4.10;99.90;;;;;;1896436;76;21105;-83
2021/01/31 09:09:21;;;;;;;6.05;3.75;;;4.20;99.90;;;;;;1896442;76;21066;-81
2021/01/31 09:11:51;;;;;;;6.28;3.87;;;4.30;99.90;;;;;;1896581;75;21062;-82
2021/01/31 09:14:17;;;;;;;6.30;3.70;;;4.20;99.90;;;;;;1896536;75;21079;-82
2021/01/31 09:16:43;;;;;;;3.45;3.10;;;4.00;99.90;;;;;;1896492;75;21069;-82
2021/01/31 09:19:09;;;;;;;5.33;3.05;;;4.20;99.90;;;;;;1929491;74;21065;-82
2021/01/31 09:21:35;;;;;;;5.08;3.85;;;4.10;99.90;;;;;;1896479;76;21106;-78
2021/01/31 09:24:09;;;;;;;4.47;3.75;;;4.10;99.90;;;;;;1896481;76;21039;-80
2021/01/31 09:26:35;;;;;;;8.60;4.20;;;4.10;99.90;;;;;;1896335;75;21111;-79
2021/01/31 09:29:01;;;;;;;10.05;4.85;;;4.10;99.90;;;;;;1896476;76;21075;-78
2021/01/31 09:31:27;;;;;;;6.60;4.37;;;4.20;99.90;;;;;;1918631;74;21060;-83
2021/01/31 09:33:53;;;;;;;4.75;3.52;;;4.40;99.90;;;;;;1899704;74;21051;-80
2021/01/31 09:36:19;;;;;;;5.85;3.85;;;4.50;99.90;;;;;;1901917;74;21074;-78
2021/01/31 09:41:31;;;;;;;8.13;4.60;;;4.50;99.90;;;;;;1908838;75;21473;-78
2021/01/31 09:43:57;;;;;;;7.72;4.40;;;4.40;99.90;;;;;;1872105;77;21113;-80
2021/01/31 09:46:27;;;;;;;11.12;3.65;;;4.50;99.90;;;;;;1871913;77;21120;-80
2021/01/31 09:48:51;;;;;;;5.83;3.77;;;4.70;99.90;;;;;;1872008;76;21190;-81
2021/01/31 09:51:17;;;;;;;6.08;3.98;;;4.60;99.90;;;;;;1872149;77;21525;-79
2021/01/31 09:53:43;;;;;;;13.38;4.15;;;4.80;99.90;;;;;;1872023;77;21432;-79
2021/01/31 09:56:09;;;;;;;8.20;4.45;;;4.80;99.90;;;;;;1871921;77;21470;-77
2021/01/31 09:58:35;;;;;;;6.50;4.25;;;4.90;99.90;;;;;;1871864;77;21054;-78
2021/01/31 10:01:01;;;;;;;4.87;3.58;;;4.70;99.90;;;;;;1872001;77;21120;-78
2021/01/31 10:03:28;;;;;;;8.10;4.28;;;4.70;99.90;;;;;;1871922;77;21159;-76
2021/01/31 10:05:54;;;;;;;8.33;4.17;;;4.70;99.90;;;;;;1872310;77;21124;-76
2021/01/31 10:08:20;;;;;;;5.28;3.92;;;4.60;99.90;;;;;;1872086;77;21035;-79
2021/01/31 10:10:46;;;;;;;5.53;4.03;;;4.80;99.90;;;;;;1872407;77;21058;-82
2021/01/31 10:13:12;;;;;;;6.50;4.17;;;4.60;99.90;;;;;;1872376;77;21054;-78
2021/01/31 10:15:38;;;;;;;6.12;4.30;;;4.50;99.90;;;;;;1872239;77;21116;-81
2021/01/31 10:18:04;;;;;;;10.72;4.72;;;4.50;99.90;;;;;;1872289;76;21552;-78
2021/01/31 10:20:30;;;;;;;5.65;3.85;;;4.80;99.90;;;;;;1872270;77;21438;-80
2021/01/31 10:22:57;;;;;;;7.12;4.05;;;4.80;99.90;;;;;;1872491;77;21129;-81
2021/01/31 10:25:23;;;;;;;6.40;4.00;;;5.00;99.90;;;;;;1872327;77;21032;-80
2021/01/31 10:27:49;;;;;;;7.33;3.98;;;5.00;99.90;;;;;;1872342;77;21058;-79
2021/01/31 10:30:15;;;;;;;10.08;5.28;;;5.00;99.90;;;;;;1872246;77;21054;-80
2021/01/31 10:32:41;;;;;;;6.08;4.12;;;4.90;99.90;;;;;;1872274;77;21059;-80
2021/01/31 10:35:07;;;;;;;7.62;4.33;;;5.00;99.90;;;;;;1872207;77;21117;-80
2021/01/31 10:37:33;;;;;;;5.55;4.08;;;5.20;99.90;;;;;;1872277;77;21132;-78
2021/01/31 10:39:59;;;;;;;6.70;4.20;;;5.10;99.90;;;;;;1872174;77;21032;-78
2021/01/31 10:42:26;;;;;;;6.95;3.70;;;4.90;99.90;;;;;;1872383;77;21145;-79
2021/01/31 10:44:52;;;;;;;6.80;3.75;;;5.30;99.90;;;;;;1872202;77;21092;-78
2021/01/31 10:47:18;;;;;;;10.15;3.62;;;5.40;99.90;;;;;;1872200;77;21485;-78
2021/01/31 10:49:44;;;;;;;6.72;3.77;;;5.60;99.90;;;;;;1872291;77;21486;-79
2021/01/31 10:52:10;;;;;;;10.48;4.15;;;6.00;99.90;;;;;;1872429;77;21129;-78
2021/01/31 10:54:36;;;;;;;6.17;2.98;;;6.20;99.90;;;;;;1874442;77;21080;-80
2021/01/31 10:57:02;;;;;;;5.37;3.95;;;6.30;99.90;;;;;;1872403;77;21055;-78
2021/01/31 10:59:31;;;;;;;7.10;3.70;;;5.70;99.90;;;;;;1872552;76;21058;-78
2021/01/31 11:01:56;;;;;;;5.20;3.27;;;6.00;99.90;;;;;;1872015;76;21233;-79
2021/01/31 11:04:22;;;;;;;6.28;3.42;;;5.70;99.90;;;;;;1872297;77;21050;-78
2021/01/31 11:06:49;;;;;;;5.58;4.00;;;5.90;99.90;;;;;;1872223;77;21032;-79
2021/01/31 11:09:17;;;;;;;4.60;3.27;;;5.90;99.90;;;;;;1872252;77;21059;-78
2021/01/31 11:11:43;;;;;;;5.00;3.50;;;5.80;99.90;;;;;;1871861;76;21078;-77
2021/01/31 11:14:09;;;;;;;7.67;3.72;;;5.70;99.90;;;;;;1872078;76;21120;-77
2021/01/31 11:16:35;;;;;;;5.65;3.35;;;5.80;99.90;;;;;;1871951;77;21152;-75
2021/01/31 11:19:01;;;;;;;5.80;3.40;;;5.70;99.90;;;;;;1871961;77;21128;-77
2021/01/31 11:21:27;;;;;;;6.28;3.37;;;5.80;99.90;;;;;;1872437;77;21079;-76
2021/01/31 11:23:54;;;;;;;6.42;3.83;;;5.60;99.90;;;;;;1871896;76;21054;-75
2021/01/31 11:26:20;;;;;;;4.97;3.60;;;5.40;99.90;;;;;;1871858;77;21544;-76
2021/01/31 11:28:46;;;;;;;5.33;3.70;;;5.50;99.90;;;;;;1871835;77;21066;-74
2021/01/31 11:31:12;;;;;;;5.15;3.42;;;5.60;99.90;;;;;;1871818;76;21054;-75
2021/01/31 11:33:39;;;;;;;3.83;3.22;;;5.60;99.90;;;;;;1871897;77;21120;-76
2021/01/31 11:36:05;;;;;;;4.00;3.27;;;5.40;99.90;;;;;;1872105;77;21031;-75
2021/01/31 11:38:31;;;;;;;6.03;4.20;;;5.50;99.90;;;;;;1850991;76;21043;-78
2021/01/31 11:40:57;;;;;;;5.80;4.03;;;5.60;99.90;;;;;;1871842;77;21066;-76
2021/01/31 11:43:23;;;;;;;5.50;3.83;;;5.70;99.90;;;;;;1871922;77;21140;-75
2021/01/31 11:45:49;;;;;;;6.58;4.08;;;5.80;99.90;;;;;;1871895;77;21446;-75
2021/01/31 11:48:16;;;;;;;8.13;4.10;;;5.70;99.90;;;;;;1873593;77;21145;-75
2021/01/31 11:50:43;;;;;;;6.20;3.80;;;5.90;99.90;;;;;;1873284;76;21077;-75
2021/01/31 11:53:09;;;;;;;8.45;4.28;;;6.10;99.90;;;;;;1871803;77;21148;-76
2021/01/31 11:56:03;;;;;;;5.72;3.40;;;6.00;99.90;;;;;;2040400;69;22256;-76
2021/01/31 11:58:29;;;;;;;5.65;3.33;;;5.70;99.90;;;;;;2003704;70;21050;-77
2021/01/31 12:00:55;;;;;;;4.78;3.45;;;5.70;99.90;;;;;;1971460;72;21164;-77
2021/01/31 12:03:21;;;;;;;6.15;3.75;;;5.90;99.90;;;;;;1928801;73;21135;-76
2021/01/31 12:05:49;;;;;;;4.55;3.30;;;5.70;99.90;;;;;;2011093;71;21068;-77
2021/01/31 12:08:15;;;;;;;4.70;3.25;;;5.70;99.90;;;;;;2007216;70;21118;-75
2021/01/31 12:10:43;;;;;;;5.17;3.80;;;5.80;99.90;;;;;;2010653;71;21117;-77
2021/01/31 12:13:09;;;;;;;4.95;3.02;;;5.70;99.90;;;;;;2010332;70;21065;-75
2021/01/31 12:15:39;;;;;;;5.08;3.67;;;5.80;99.90;;;;;;2003793;70;21071;-76
2021/01/31 12:18:07;;;;;;;5.80;3.67;;;6.10;99.90;;;;;;1942778;72;21158;-75
2021/01/31 12:20:35;;;;;;;3.95;3.55;;;6.10;99.90;;;;;;1958680;72;21517;-76
2021/01/31 12:23:07;;;;;;;4.33;3.05;;;5.90;99.90;;;;;;1956270;72;21149;-75
2021/01/31 12:25:36;;;;;;;4.00;3.35;;;5.80;99.90;;;;;;1957381;72;21157;-75
2021/01/31 12:28:07;;;;;;;5.60;3.85;;;5.70;99.90;;;;;;1956833;72;21491;-77
2021/01/31 12:30:36;;;;;;;8.98;3.85;;;5.90;99.90;;;;;;1957991;72;21220;-77
2021/01/31 12:33:02;;;;;;;7.70;3.80;;;5.70;99.90;;;;;;1959590;72;21137;-78
2021/01/31 12:35:28;;;;;;;5.50;3.40;;;5.90;99.90;;;;;;1959299;73;21076;-77
2021/01/31 12:37:54;;;;;;;8.00;4.22;;;5.80;99.90;;;;;;1957211;72;21064;-77
2021/01/31 12:40:21;;;;;;;7.58;4.58;;;5.70;99.90;;;;;;1956599;73;21037;-77
2021/01/31 12:42:48;;;;;;;6.47;4.15;;;5.70;99.90;;;;;;1956228;72;21467;-75
2021/01/31 12:45:14;;;;;;;7.45;4.30;;;5.50;99.90;;;;;;1956743;72;21064;-76
2021/01/31 12:47:40;;;;;;;5.12;4.20;;;5.40;99.90;;;;;;1960698;73;21045;-75
2021/01/31 12:50:06;;;;;;;5.67;4.22;;;5.60;99.90;;;;;;1960856;73;21060;-75
2021/01/31 12:52:33;;;;;;;4.85;3.90;;;5.50;99.90;;;;;;1956936;73;21072;-76
2021/01/31 12:54:59;;;;;;;6.70;4.30;;;5.60;99.90;;;;;;1960573;73;21075;-75